sensor_id;sensor_type;location;lat;lon;timestamp;temperature;humidity
9901;DHT22;4989;48.772;9.154;2023-03-01T00:02:43;4.00;67.70
9901;DHT22;4989;48.772;9.154;2023-03-01T00:07:45;3.10;78.50
9901;DHT22;4989;48.772;9.154;2023-03-01T00:12:47;3.40;70.70
9901;DHT22;4989;48.772;9.154;2023-03-01T00:17:49;3.70;82.00
9901;DHT22;4989;48.772;9.154;2023-03-01T00:22:52;4.20;76.70
9901;DHT22;4989;48.772;9.154;2023-03-01T00:27:54;4.30;91.60
9901;DHT22;4989;48.772;9.154;2023-03-01T00:32:56;4.50;69.90
9901;DHT22;4989;48.772;9.154;2023-03-01T00:37:59;3.10;74.10
9901;DHT22;4989;48.772;9.154;2023-03-01T00:43:01;2.60;75.00
9901;DHT22;4989;48.772;9.154;2023-03-01T00:48:04;2.40;77.30
9901;DHT22;4989;48.772;9.154;2023-03-01T04:01:29;3.00;86.20
9901;DHT22;4989;48.772;9.154;2023-03-01T04:06:31;5.90;72.70
9901;DHT22;4989;48.772;9.154;2023-03-01T04:11:34;5.90;70.60
9901;DHT22;4989;48.772;9.154;2023-03-01T04:16:36;5.60;68.30
9901;DHT22;4989;48.772;9.154;2023-03-01T04:21:38;5.70;68.70
9901;DHT22;4989;48.772;9.154;2023-03-01T04:26:40;5.80;88.70
9901;DHT22;4989;48.772;9.154;2023-03-01T04:31:42;6.00;80.50
9901;DHT22;4989;48.772;9.154;2023-03-01T04:36:44;6.10;78.60
9901;DHT22;4989;48.772;9.154;2023-03-01T04:41:47;5.80;69.20
9901;DHT22;4989;48.772;9.154;2023-03-01T04:46:49;5.60;71.90
9901;DHT22;4989;48.772;9.154;2023-03-01T04:51:52;5.70;74.60
9901;DHT22;4989;48.772;9.154;2023-03-01T04:56:54;5.80;84.60
9901;DHT22;4989;48.772;9.154;2023-03-01T05:01:57;5.90;72.40
9901;DHT22;4989;48.772;9.154;2023-03-01T05:06:59;6.00;80.20
9901;DHT22;4989;48.772;9.154;2023-03-01T05:12:01;6.00;72.60
9901;DHT22;4989;48.772;9.154;2023-03-01T05:17:03;6.00;80.40
9901;DHT22;4989;48.772;9.154;2023-03-01T05:22:06;6.00;74.30
9901;DHT22;4989;48.772;9.154;2023-03-01T05:27:08;6.10;74.70
9901;DHT22;4989;48.772;9.154;2023-03-01T05:32:10;6.00;72.90
9901;DHT22;4989;48.772;9.154;2023-03-01T05:37:17;6.00;72.20
9901;DHT22;4989;48.772;9.154;2023-03-01T05:42:19;6.10;73.60
9901;DHT22;4989;48.772;9.154;2023-03-01T05:47:21;6.10;72.80
9901;DHT22;4989;48.772;9.154;2023-03-01T05:52:24;6.10;74.90
9901;DHT22;4989;48.772;9.154;2023-03-01T05:57:28;6.20;75.10
9901;DHT22;4989;48.772;9.154;2023-03-01T06:02:30;6.10;72.90
9901;DHT22;4989;48.772;9.154;2023-03-01T06:07:33;6.10;74.90
9901;DHT22;4989;48.772;9.154;2023-03-01T06:12:36;6.00;82.40
9901;DHT22;4989;48.772;9.154;2023-03-01T06:17:41;6.10;76.00
9901;DHT22;4989;48.772;9.154;2023-03-01T06:22:45;6.20;75.90
9901;DHT22;4989;48.772;9.154;2023-03-01T06:27:48;6.10;74.70
9901;DHT22;4989;48.772;9.154;2023-03-01T06:32:51;6.20;74.50
9901;DHT22;4989;48.772;9.154;2023-03-01T06:37:54;6.20;69.40
9901;DHT22;4989;48.772;9.154;2023-03-01T06:42:56;6.20;75.20
9901;DHT22;4989;48.772;9.154;2023-03-01T06:48:06;6.10;72.20
9901;DHT22;4989;48.772;9.154;2023-03-01T06:53:09;6.10;81.00
9901;DHT22;4989;48.772;9.154;2023-03-01T06:58:11;6.30;76.40
9901;DHT22;4989;48.772;9.154;2023-03-01T07:03:13;6.40;74.20
9901;DHT22;4989;48.772;9.154;2023-03-01T07:08:15;6.30;79.70
9901;DHT22;4989;48.772;9.154;2023-03-01T07:13:17;6.50;77.70
9901;DHT22;4989;48.772;9.154;2023-03-01T07:18:20;6.60;76.30
9901;DHT22;4989;48.772;9.154;2023-03-01T07:23:22;6.70;79.10
9901;DHT22;4989;48.772;9.154;2023-03-01T07:28:24;6.80;76.40
9901;DHT22;4989;48.772;9.154;2023-03-01T07:33:26;7.20;70.40
9901;DHT22;4989;48.772;9.154;2023-03-01T07:38:29;7.50;71.20
9901;DHT22;4989;48.772;9.154;2023-03-01T07:43:31;7.70;72.40
9901;DHT22;4989;48.772;9.154;2023-03-01T07:48:33;7.60;68.60
9901;DHT22;4989;48.772;9.154;2023-03-01T07:53:36;7.30;67.30
9901;DHT22;4989;48.772;9.154;2023-03-01T07:58:40;7.10;68.10
9901;DHT22;4989;48.772;9.154;2023-03-01T08:03:44;6.90;71.80
9901;DHT22;4989;48.772;9.154;2023-03-01T08:08:46;7.00;75.20
9901;DHT22;4989;48.772;9.154;2023-03-01T08:13:48;7.10;73.80
9901;DHT22;4989;48.772;9.154;2023-03-01T08:18:54;7.10;73.40
9901;DHT22;4989;48.772;9.154;2023-03-01T08:23:58;7.20;67.10
9901;DHT22;4989;48.772;9.154;2023-03-01T08:29:00;7.80;68.10
9901;DHT22;4989;48.772;9.154;2023-03-01T08:34:05;7.60;66.00
9901;DHT22;4989;48.772;9.154;2023-03-01T08:39:15;8.20;67.90
9901;DHT22;4989;48.772;9.154;2023-03-01T08:44:18;8.30;67.30
9901;DHT22;4989;48.772;9.154;2023-03-01T08:49:22;8.50;66.40
9901;DHT22;4989;48.772;9.154;2023-03-01T08:54:25;8.50;65.90
9901;DHT22;4989;48.772;9.154;2023-03-01T08:59:27;8.40;63.10
9901;DHT22;4989;48.772;9.154;2023-03-01T11:13:08;8.40;63.90
9901;DHT22;4989;48.772;9.154;2023-03-01T11:34:05;13.20;52.60
9901;DHT22;4989;48.772;9.154;2023-03-01T11:39:47;20.00;43.30
9901;DHT22;4989;48.772;9.154;2023-03-01T11:44:59;21.10;42.40
9901;DHT22;4989;48.772;9.154;2023-03-01T11:50:29;21.70;39.30
9901;DHT22;4989;48.772;9.154;2023-03-01T11:56:09;20.70;38.20
9901;DHT22;4989;48.772;9.154;2023-03-01T12:24:35;19.60;42.50
9901;DHT22;4989;48.772;9.154;2023-03-01T12:35:33;18.60;44.10
9901;DHT22;4989;48.772;9.154;2023-03-01T12:41:27;17.10;43.10
9901;DHT22;4989;48.772;9.154;2023-03-01T12:47:17;17.30;40.80
9901;DHT22;4989;48.772;9.154;2023-03-01T12:52:36;18.60;42.00
9901;DHT22;4989;48.772;9.154;2023-03-01T12:57:50;17.30;42.00
9901;DHT22;4989;48.772;9.154;2023-03-01T13:08:40;17.20;44.20
9901;DHT22;4989;48.772;9.154;2023-03-01T13:13:43;18.00;45.20
9901;DHT22;4989;48.772;9.154;2023-03-01T13:18:45;16.70;42.80
9901;DHT22;4989;48.772;9.154;2023-03-01T13:23:48;16.70;43.80
9901;DHT22;4989;48.772;9.154;2023-03-01T13:28:53;17.90;43.30
9901;DHT22;4989;48.772;9.154;2023-03-01T13:33:58;16.20;45.40
9901;DHT22;4989;48.772;9.154;2023-03-01T13:39:03;15.20;45.50
9901;DHT22;4989;48.772;9.154;2023-03-01T13:44:36;14.70;49.00
9901;DHT22;4989;48.772;9.154;2023-03-01T13:54:48;16.90;44.90
9901;DHT22;4989;48.772;9.154;2023-03-01T13:59:50;18.00;43.60
9901;DHT22;4989;48.772;9.154;2023-03-01T14:04:57;19.70;43.00
9901;DHT22;4989;48.772;9.154;2023-03-01T14:10:05;20.10;44.00
9901;DHT22;4989;48.772;9.154;2023-03-01T14:20:27;20.90;40.10
9901;DHT22;4989;48.772;9.154;2023-03-01T14:25:37;20.70;42.10
9901;DHT22;4989;48.772;9.154;2023-03-01T14:30:43;19.20;40.40
9901;DHT22;4989;48.772;9.154;2023-03-01T14:36:03;16.80;44.70
9901;DHT22;4989;48.772;9.154;2023-03-01T14:41:18;15.10;47.10
9901;DHT22;4989;48.772;9.154;2023-03-01T14:46:30;14.30;47.10
9901;DHT22;4989;48.772;9.154;2023-03-01T14:51:38;13.70;51.00
9901;DHT22;4989;48.772;9.154;2023-03-01T14:56:44;13.50;49.80
9901;DHT22;4989;48.772;9.154;2023-03-01T15:01:48;13.40;52.10
9901;DHT22;4989;48.772;9.154;2023-03-01T15:17:30;12.60;51.80
9901;DHT22;4989;48.772;9.154;2023-03-01T19:21:12;12.60;50.50
9901;DHT22;4989;48.772;9.154;2023-03-01T19:26:16;9.70;59.90
9901;DHT22;4989;48.772;9.154;2023-03-01T19:31:23;9.80;60.00
9901;DHT22;4989;48.772;9.154;2023-03-01T19:36:27;9.80;58.40
9901;DHT22;4989;48.772;9.154;2023-03-01T19:41:34;9.50;64.20
9901;DHT22;4989;48.772;9.154;2023-03-01T19:46:37;8.80;56.80
9901;DHT22;4989;48.772;9.154;2023-03-01T19:51:42;8.60;57.90
9901;DHT22;4989;48.772;9.154;2023-03-01T19:56:45;8.70;59.80
9901;DHT22;4989;48.772;9.154;2023-03-01T20:01:50;8.30;58.20
9901;DHT22;4989;48.772;9.154;2023-03-01T20:06:53;8.00;61.90
9901;DHT22;4989;48.772;9.154;2023-03-01T20:11:56;8.10;65.50
9901;DHT22;4989;48.772;9.154;2023-03-01T20:16:58;8.60;58.50
9901;DHT22;4989;48.772;9.154;2023-03-01T20:22:00;8.30;61.20
9901;DHT22;4989;48.772;9.154;2023-03-01T20:27:03;8.40;63.60
9901;DHT22;4989;48.772;9.154;2023-03-01T20:32:05;8.50;59.20
9901;DHT22;4989;48.772;9.154;2023-03-01T20:37:07;8.70;62.00
9901;DHT22;4989;48.772;9.154;2023-03-01T20:42:10;8.80;63.00
9901;DHT22;4989;48.772;9.154;2023-03-01T20:47:13;9.10;61.30
9901;DHT22;4989;48.772;9.154;2023-03-01T20:52:15;9.30;60.80
9901;DHT22;4989;48.772;9.154;2023-03-01T20:57:18;9.20;60.70
9901;DHT22;4989;48.772;9.154;2023-03-01T21:02:20;9.20;65.60
9901;DHT22;4989;48.772;9.154;2023-03-01T21:07:22;9.40;61.80
9901;DHT22;4989;48.772;9.154;2023-03-01T21:12:24;9.30;63.50
9901;DHT22;4989;48.772;9.154;2023-03-01T21:17:27;9.30;61.70
9901;DHT22;4989;48.772;9.154;2023-03-01T21:22:29;9.50;65.40
9901;DHT22;4989;48.772;9.154;2023-03-01T21:27:36;9.40;63.20
9901;DHT22;4989;48.772;9.154;2023-03-01T21:32:39;9.30;63.70
9901;DHT22;4989;48.772;9.154;2023-03-01T21:37:41;9.30;64.80
9901;DHT22;4989;48.772;9.154;2023-03-01T21:42:43;9.30;64.00
9901;DHT22;4989;48.772;9.154;2023-03-01T21:47:45;9.30;62.10
9901;DHT22;4989;48.772;9.154;2023-03-01T21:52:50;9.30;63.00
9901;DHT22;4989;48.772;9.154;2023-03-01T21:57:52;9.20;66.30
9901;DHT22;4989;48.772;9.154;2023-03-01T22:02:55;9.30;65.60
9901;DHT22;4989;48.772;9.154;2023-03-01T22:07:58;9.20;64.00
9901;DHT22;4989;48.772;9.154;2023-03-01T22:13:00;9.10;61.70
9901;DHT22;4989;48.772;9.154;2023-03-01T22:18:03;9.00;64.10
9901;DHT22;4989;48.772;9.154;2023-03-01T22:23:06;9.20;68.00
9901;DHT22;4989;48.772;9.154;2023-03-01T22:28:08;9.00;64.00
9901;DHT22;4989;48.772;9.154;2023-03-01T22:33:11;9.00;68.50
9901;DHT22;4989;48.772;9.154;2023-03-01T22:38:13;9.10;64.30
9901;DHT22;4989;48.772;9.154;2023-03-01T22:43:16;9.10;62.90
9901;DHT22;4989;48.772;9.154;2023-03-01T22:48:18;9.10;67.00
9901;DHT22;4989;48.772;9.154;2023-03-01T22:53:20;9.00;63.90
9901;DHT22;4989;48.772;9.154;2023-03-01T22:58:23;8.90;64.00
9901;DHT22;4989;48.772;9.154;2023-03-01T23:03:25;8.80;64.90
9901;DHT22;4989;48.772;9.154;2023-03-01T23:08:27;8.60;65.90
9901;DHT22;4989;48.772;9.154;2023-03-01T23:13:30;8.50;64.60
9901;DHT22;4989;48.772;9.154;2023-03-01T23:18:32;8.70;64.80
9901;DHT22;4989;48.772;9.154;2023-03-01T23:23:34;8.70;65.60
9901;DHT22;4989;48.772;9.154;2023-03-01T23:28:36;8.60;72.10
9901;DHT22;4989;48.772;9.154;2023-03-01T23:33:43;8.50;63.30
9901;DHT22;4989;48.772;9.154;2023-03-01T23:38:47;8.50;65.60
9901;DHT22;4989;48.772;9.154;2023-03-01T23:43:53;8.30;70.80
9901;DHT22;4989;48.772;9.154;2023-03-01T23:48:58;8.10;61.50
9901;DHT22;4989;48.772;9.154;2023-03-01T23:54:01;8.00;63.70
9901;DHT22;4989;48.772;9.154;2023-03-01T23:59:08;8.10;70.30
